BNP weather

Bannu Airport
Bannu, North-West Frontier, Pakistan

Public forecast

Using degrees Celsius for public forecast. Weather courtesy of forecast.io.

Closest aviation weather report (METAR) to Bannu Airport

Closest report is Peshawar International Airport, 78.7 nm (145.8 km) NE. Retrieved 2020/08/04 14:00 UTC (16 minutes ago):

OPPS 041400Z 05006KT 6000 HZ FEW040 SCT100 34/22 Q992

Closest aviation forecast (TAF) to Bannu Airport

Closest forecast is Peshawar International Airport, 78.7 nm (145.8 km) NE. Retrieved 2020/08/04 12:30 UTC (2 hours ago):

TAF OPPS 041000Z 0412/0518 05015G25KT 4000 HZ SCT040 SCT100 BECMG 0500/0501 05015G25KT 4000 HZ FEW040 SCT100 TEMPO 0509/0512 FEW030TCU SCT040 SCT100